Time;durP1;ratioP1;P1;durP2;ratioP2;P2;SDS_P1;SDS_P2;PMS_P1;PMS_P2;Temp;Humidity;BMP_temperature;BMP_pressure;BME280_temperature;BME280_humidity;BME280_pressure;Samples;Min_cycle;Max_cycle;Signal;HPM_P1;HPM_P2
2023/09/14 00:01:00;;;;;;;0.00;0.00;;;;;;;17.09;65.73;102399.25;5018844;28;20029;-77
2023/09/14 00:03:26;;;;;;;0.10;0.10;;;;;;;17.10;66.21;102406.38;5016673;28;20029;-78
2023/09/14 00:05:52;;;;;;;0.20;0.20;;;;;;;17.11;65.93;102396.56;5016865;28;20507;-76
2023/09/14 00:08:20;;;;;;;0.20;0.20;;;;;;;17.13;65.83;102400.97;5014961;28;20453;-76
2023/09/14 00:10:51;;;;;;;0.10;0.10;;;;;;;17.11;66.03;102397.44;5016743;28;20657;-76
2023/09/14 00:13:18;;;;;;;0.10;0.10;;;;;;;17.12;65.98;102403.66;5014333;28;20025;-77
2023/09/14 00:15:44;;;;;;;0.10;0.10;;;;;;;17.09;65.51;102404.59;5016668;28;20034;-77
2023/09/14 00:18:10;;;;;;;0.10;0.10;;;;;;;17.08;65.63;102402.84;5019477;28;20083;-77
2023/09/14 00:20:36;;;;;;;0.10;0.10;;;;;;;17.05;65.89;102400.25;5015687;28;20090;-77
2023/09/14 00:23:03;;;;;;;0.10;0.10;;;;;;;17.02;66.14;102400.31;5022388;28;20059;-77
2023/09/14 00:25:29;;;;;;;0.10;0.10;;;;;;;17.01;65.54;102398.56;5015763;28;20488;-78
2023/09/14 00:27:55;;;;;;;0.10;0.10;;;;;;;16.97;65.46;102404.88;5015212;28;20049;-78
2023/09/14 00:30:22;;;;;;;0.10;0.10;;;;;;;16.93;65.78;102403.19;5018485;28;20049;-78
2023/09/14 00:32:52;;;;;;;0.10;0.10;;;;;;;16.91;65.86;102404.97;5015680;28;20106;-79
2023/09/14 00:35:19;;;;;;;0.10;0.10;;;;;;;16.90;66.20;102404.09;5020701;28;20022;-78
2023/09/14 00:37:45;;;;;;;0.10;0.10;;;;;;;16.87;65.87;102408.66;5010030;28;20022;-78
2023/09/14 00:40:13;;;;;;;0.00;0.00;;;;;;;16.85;65.70;102402.44;5018100;28;20025;-78
2023/09/14 00:42:44;;;;;;;0.10;0.10;;;;;;;16.86;65.63;102397.06;5018639;28;20486;-77
2023/09/14 00:45:15;;;;;;;0.10;0.10;;;;;;;16.82;66.00;102401.59;5013881;28;20052;-78
2023/09/14 00:47:45;;;;;;;0.00;0.00;;;;;;;16.81;65.87;102399.84;5024755;28;20037;-78
2023/09/14 00:50:16;;;;;;;0.10;0.10;;;;;;;16.81;65.70;102398.97;5026291;28;20036;-77
2023/09/14 00:52:44;;;;;;;0.10;0.10;;;;;;;16.79;65.78;102404.34;5021809;28;20017;-79
2023/09/14 00:55:12;;;;;;;0.03;0.03;;;;;;;16.76;66.00;102406.19;5028979;28;20025;-80
2023/09/14 00:57:39;;;;;;;0.10;0.10;;;;;;;16.74;66.32;102402.69;5019667;28;20453;-80
2023/09/14 01:00:10;;;;;;;0.10;0.10;;;;;;;16.72;66.12;102404.50;5026805;28;20033;-78
2023/09/14 01:02:39;;;;;;;0.10;0.10;;;;;;;16.72;66.12;102404.50;5018172;28;20397;-78
2023/09/14 01:05:06;;;;;;;0.10;0.10;;;;;;;16.71;66.46;102400.94;5018937;28;20037;-78
2023/09/14 01:07:34;;;;;;;0.10;0.10;;;;;;;16.69;66.08;102408.13;5019238;28;20123;-78
2023/09/14 01:10:01;;;;;;;0.10;0.10;;;;;;;16.71;66.22;102408.97;5022031;28;20041;-78
2023/09/14 01:12:27;;;;;;;0.10;0.10;;;;;;;16.70;66.39;102401.88;5025714;28;20067;-79
2023/09/14 01:15:05;;;;;;;0.10;0.10;;;;;;;16.73;66.45;102407.13;5024790;27;20213;-77
2023/09/14 01:17:58;;;;;;;0.20;0.20;;;;;;;16.74;66.27;102400.88;5022193;28;20494;-79
2023/09/14 01:26:01;;;;;;;0.10;0.10;;;;;;;16.66;66.34;102402.84;5057061;28;20614;-77
2023/09/14 01:28:28;;;;;;;0.00;0.00;;;;;;;16.65;66.50;102403.75;5068556;28;20096;-76
2023/09/14 01:30:54;;;;;;;0.00;0.00;;;;;;;16.66;66.55;102405.53;5070636;28;20119;-77
2023/09/14 01:33:24;;;;;;;0.00;0.00;;;;;;;16.69;66.51;102408.13;5067619;28;20029;-78
2023/09/14 01:36:14;;;;;;;0.22;0.22;;;;;;;16.74;66.73;102402.69;5068182;28;20086;-78
2023/09/14 01:38:42;;;;;;;0.00;0.00;;;;;;;16.71;66.38;102400.06;5069929;28;20567;-77
2023/09/14 01:41:09;;;;;;;0.10;0.10;;;;;;;16.69;66.66;102392.06;5069761;28;20020;-77
2023/09/14 01:43:36;;;;;;;0.10;0.10;;;;;;;16.68;66.91;102389.44;5062778;28;20089;-77
2023/09/14 01:46:04;;;;;;;0.00;0.00;;;;;;;16.68;66.67;102386.75;5061303;28;20075;-78
2023/09/14 01:48:30;;;;;;;0.10;0.10;;;;;;;16.67;66.57;102385.84;5070388;28;20017;-79
2023/09/14 01:50:56;;;;;;;0.00;0.00;;;;;;;16.65;66.60;102380.53;5072140;28;20293;-77
2023/09/14 01:53:22;;;;;;;0.10;0.10;;;;;;;16.63;66.38;102390.38;5071432;28;20124;-78
2023/09/14 01:55:48;;;;;;;0.10;0.10;;;;;;;16.62;66.86;102393.09;5069326;28;20032;-78
2023/09/14 01:58:15;;;;;;;0.13;0.13;;;;;;;16.59;66.38;102394.03;5059410;28;20081;-78
2023/09/14 02:00:41;;;;;;;0.10;0.10;;;;;;;16.59;66.38;102390.50;5062497;28;20025;-79
2023/09/14 02:03:07;;;;;;;0.90;0.50;;;;;;;16.58;66.37;102391.41;5065501;28;20047;-79
2023/09/14 02:05:33;;;;;;;0.10;0.10;;;;;;;16.56;66.80;102387.88;5066115;28;20031;-78
2023/09/14 02:07:59;;;;;;;0.10;0.10;;;;;;;16.52;66.74;102386.19;5064585;28;20116;-78
2023/09/14 02:10:25;;;;;;;0.00;0.00;;;;;;;16.50;66.10;102381.75;5068323;28;20103;-78
2023/09/14 02:12:51;;;;;;;0.10;0.10;;;;;;;16.50;66.39;102381.75;5062625;28;20068;-78
2023/09/14 02:15:17;;;;;;;0.10;0.10;;;;;;;16.46;66.75;102381.81;5062242;28;20402;-78
2023/09/14 02:17:44;;;;;;;0.10;0.10;;;;;;;16.42;66.82;102375.66;5062415;28;20029;-78
2023/09/14 02:20:11;;;;;;;0.10;0.10;;;;;;;16.39;66.82;102373.06;5068940;28;20687;-78
2023/09/14 02:22:37;;;;;;;0.10;0.10;;;;;;;16.37;66.41;102372.19;5068370;28;20063;-77
2023/09/14 02:25:03;;;;;;;0.20;0.20;;;;;;;16.35;66.58;102374.03;5063466;28;20032;-77
2023/09/14 02:27:29;;;;;;;0.10;0.10;;;;;;;16.31;66.81;102369.63;5067323;28;20035;-80
2023/09/14 02:29:55;;;;;;;0.08;0.08;;;;;;;16.29;66.87;102364.31;5057244;28;20517;-79
2023/09/14 02:32:23;;;;;;;0.28;0.28;;;;;;;16.26;66.87;102367.06;5058877;28;20486;-79
2023/09/14 02:34:49;;;;;;;0.10;0.10;;;;;;;16.25;66.52;102367.06;5059769;28;20025;-79
2023/09/14 02:37:16;;;;;;;0.10;0.10;;;;;;;16.22;66.34;102361.81;5053799;28;20035;-79
2023/09/14 02:39:42;;;;;;;0.32;0.32;;;;;;;16.18;66.45;102367.19;5050279;28;20035;-79
2023/09/14 02:42:08;;;;;;;0.10;0.10;;;;;;;16.15;66.59;102364.59;5054705;28;20033;-80
2023/09/14 02:44:37;;;;;;;0.00;0.00;;;;;;;16.13;66.32;102373.56;5047191;28;20064;-79
2023/09/14 02:47:03;;;;;;;0.10;0.10;;;;;;;16.09;66.13;102367.38;5053024;28;20039;-77
2023/09/14 02:49:29;;;;;;;0.10;0.10;;;;;;;16.07;66.36;102371.00;5052564;28;20025;-78
2023/09/14 02:51:55;;;;;;;0.10;0.10;;;;;;;16.06;66.48;102377.25;5054562;28;20025;-78
2023/09/14 02:54:21;;;;;;;0.10;0.10;;;;;;;16.05;66.57;102367.47;5044069;28;20026;-79
2023/09/14 02:56:47;;;;;;;0.10;0.10;;;;;;;16.04;66.96;102365.69;5049912;28;20526;-79
2023/09/14 02:59:16;;;;;;;0.00;0.00;;;;;;;16.01;66.71;102366.63;5052698;28;20025;-79
2023/09/14 03:01:44;;;;;;;0.10;0.10;;;;;;;16.00;66.81;102367.56;5045556;28;20456;-79
2023/09/14 03:04:10;;;;;;;0.10;0.10;;;;;;;15.99;67.01;102360.47;5048282;28;20028;-79
2023/09/14 03:06:36;;;;;;;0.10;0.10;;;;;;;15.97;67.02;102362.25;5050318;28;20037;-79
2023/09/14 03:09:02;;;;;;;0.10;0.10;;;;;;;15.97;66.91;102356.91;5053648;28;20409;-79
2023/09/14 03:11:28;;;;;;;0.22;0.22;;;;;;;15.95;67.27;102358.72;5047996;28;20041;-77
2023/09/14 03:13:55;;;;;;;0.05;0.05;;;;;;;15.95;66.83;102356.06;5052310;28;20040;-79
2023/09/14 03:16:21;;;;;;;0.10;0.10;;;;;;;15.95;67.18;102364.06;5049209;28;20063;-79
2023/09/14 03:18:47;;;;;;;0.10;0.10;;;;;;;15.91;67.30;102357.03;5052457;28;20171;-78
2023/09/14 03:21:29;;;;;;;0.15;0.15;;;;;;;15.94;67.14;102365.88;5051332;28;20031;-79
2023/09/14 03:23:55;;;;;;;0.10;0.10;;;;;;;15.85;66.92;102364.25;5053901;28;20114;-79
2023/09/14 03:26:23;;;;;;;0.10;0.10;;;;;;;15.81;67.35;102367.88;5052052;28;20037;-78
2023/09/14 03:28:50;;;;;;;0.10;0.10;;;;;;;15.82;66.79;102363.41;5055758;28;20063;-79
2023/09/14 03:31:17;;;;;;;0.40;0.40;;;;;;;15.79;66.80;102361.66;5045032;28;20037;-79
2023/09/14 03:33:45;;;;;;;0.10;0.10;;;;;;;15.76;67.50;102367.03;5055910;28;20064;-77
2023/09/14 03:36:12;;;;;;;0.05;0.05;;;;;;;15.77;66.91;102366.13;5054185;28;20062;-76
2023/09/14 03:38:38;;;;;;;0.10;0.10;;;;;;;15.76;67.37;102359.03;5055049;28;20091;-75
2023/09/14 03:41:04;;;;;;;0.10;0.10;;;;;;;15.77;67.04;102362.59;5054062;28;20613;-76
2023/09/14 03:43:30;;;;;;;0.20;0.20;;;;;;;15.76;67.09;102364.38;5042179;28;20021;-77
2023/09/14 03:45:57;;;;;;;1.80;0.43;;;;;;;15.74;67.34;102360.84;5046989;28;20102;-78
2023/09/14 03:48:23;;;;;;;0.10;0.10;;;;;;;15.71;67.27;102355.56;5046958;28;20036;-77
2023/09/14 03:50:51;;;;;;;0.10;0.10;;;;;;;15.68;67.33;102359.16;5047495;28;20120;-76
2023/09/14 03:53:18;;;;;;;0.10;0.10;;;;;;;15.66;67.07;102358.31;5050418;28;20312;-78
2023/09/14 03:55:44;;;;;;;0.10;0.10;;;;;;;15.65;66.94;102361.00;5050980;28;20093;-78
2023/09/14 03:58:10;;;;;;;0.10;0.10;;;;;;;15.62;67.41;102361.06;5043470;28;20021;-77
2023/09/14 04:00:36;;;;;;;0.10;0.10;;;;;;;15.60;67.43;102368.22;5040895;28;20437;-75
2023/09/14 04:03:02;;;;;;;0.98;0.77;;;;;;;15.58;67.10;102367.38;5048421;28;20037;-76
2023/09/14 04:05:28;;;;;;;0.10;0.10;;;;;;;15.58;66.84;102360.22;5042016;28;20475;-76
2023/09/14 04:07:54;;;;;;;0.10;0.10;;;;;;;15.55;67.23;102360.25;5047638;28;20041;-77
2023/09/14 04:10:20;;;;;;;0.00;0.00;;;;;;;15.55;67.20;102356.72;5038479;28;20030;-78
2023/09/14 04:12:47;;;;;;;0.30;0.30;;;;;;;15.54;67.64;102353.19;5049834;28;20567;-75
2023/09/14 04:15:13;;;;;;;0.10;0.10;;;;;;;15.51;67.18;102353.22;5047069;28;20040;-76
2023/09/14 04:17:39;;;;;;;0.10;0.10;;;;;;;15.48;67.52;102359.50;5042238;28;20502;-77
2023/09/14 04:20:09;;;;;;;0.00;0.00;;;;;;;15.44;67.31;102363.13;5040716;28;20029;-77
2023/09/14 04:22:36;;;;;;;0.10;0.10;;;;;;;15.43;67.05;102356.03;5047799;28;20060;-77
2023/09/14 04:25:02;;;;;;;0.10;0.10;;;;;;;15.42;67.13;102359.59;5052276;28;20021;-77
2023/09/14 04:27:28;;;;;;;0.08;0.08;;;;;;;15.41;67.35;102363.16;5046980;28;20040;-75
2023/09/14 04:29:54;;;;;;;0.10;0.10;;;;;;;15.39;67.21;102359.66;5050237;28;20043;-76
2023/09/14 04:32:20;;;;;;;0.10;0.10;;;;;;;15.37;67.56;102361.47;5041539;28;20079;-75
2023/09/14 04:34:46;;;;;;;0.10;0.10;;;;;;;15.35;67.47;102363.25;5036731;28;20029;-74
2023/09/14 04:37:13;;;;;;;0.30;0.30;;;;;;;15.33;67.49;102360.63;5044895;28;20498;-75
2023/09/14 04:39:39;;;;;;;0.10;0.10;;;;;;;15.33;67.11;102360.63;5043164;28;20437;-77
2023/09/14 04:42:05;;;;;;;0.00;0.00;;;;;;;15.31;67.11;102356.22;5043406;28;20029;-76
2023/09/14 04:44:31;;;;;;;0.08;0.08;;;;;;;15.30;67.55;102359.78;5046236;28;20115;-77
2023/09/14 04:46:57;;;;;;;0.10;0.10;;;;;;;15.27;67.30;102352.72;5048299;28;20033;-77
2023/09/14 04:49:23;;;;;;;0.10;0.10;;;;;;;15.26;67.27;102361.63;5043754;28;20036;-78
2023/09/14 04:51:49;;;;;;;0.22;0.22;;;;;;;15.25;67.41;102361.66;5043612;28;20072;-77
2023/09/14 04:54:15;;;;;;;0.10;0.10;;;;;;;15.25;67.41;102367.84;5051040;28;20021;-77
2023/09/14 04:56:41;;;;;;;0.00;0.00;;;;;;;15.25;67.76;102367.00;5042262;28;20037;-78
2023/09/14 04:59:07;;;;;;;0.88;0.80;;;;;;;15.25;67.23;102367.00;5045575;28;20028;-78
2023/09/14 05:01:33;;;;;;;0.05;0.05;;;;;;;15.23;67.76;102369.69;5044840;28;20043;-78
2023/09/14 05:04:00;;;;;;;0.10;0.10;;;;;;;15.25;67.56;102369.66;5048305;28;20036;-78
2023/09/14 05:06:26;;;;;;;1.55;1.38;;;;;;;15.25;67.48;102372.34;5048531;28;20022;-78
2023/09/14 05:08:52;;;;;;;0.03;0.03;;;;;;;15.25;67.82;102369.66;5040486;28;20037;-77
2023/09/14 05:11:18;;;;;;;0.00;0.00;;;;;;;15.25;67.57;102364.31;5043108;28;20055;-77
2023/09/14 05:13:44;;;;;;;0.10;0.10;;;;;;;15.26;68.12;102368.75;5039440;28;20033;-77
2023/09/14 05:16:10;;;;;;;0.50;0.50;;;;;;;15.27;68.03;102365.19;5040231;28;20055;-77
2023/09/14 05:18:36;;;;;;;0.10;0.10;;;;;;;15.24;67.97;102366.13;5039943;28;20552;-78
2023/09/14 05:21:02;;;;;;;0.10;0.10;;;;;;;15.25;67.91;102369.66;5043953;28;20029;-77
2023/09/14 05:23:28;;;;;;;0.55;0.43;;;;;;;15.27;67.80;102365.19;5045945;28;20036;-78
2023/09/14 05:25:55;;;;;;;0.00;0.00;;;;;;;15.26;67.88;102368.75;5047990;28;20104;-78
2023/09/14 05:28:22;;;;;;;0.03;0.03;;;;;;;15.26;67.98;102361.63;5044114;28;20040;-77
2023/09/14 05:30:48;;;;;;;0.10;0.10;;;;;;;15.26;67.86;102364.28;5043038;28;20059;-78
2023/09/14 05:33:14;;;;;;;0.10;0.10;;;;;;;15.25;68.07;102367.00;5052673;28;20104;-77
2023/09/14 05:35:40;;;;;;;0.10;0.10;;;;;;;15.27;67.85;102365.19;5048795;28;20077;-77
2023/09/14 05:38:07;;;;;;;0.10;0.10;;;;;;;15.26;68.10;102372.31;5050442;28;20047;-77
2023/09/14 05:40:33;;;;;;;0.10;0.10;;;;;;;15.27;67.94;102370.53;5048147;28;20114;-77
2023/09/14 05:42:59;;;;;;;0.10;0.10;;;;;;;15.27;67.75;102371.41;5052180;28;20029;-78
2023/09/14 05:45:25;;;;;;;0.03;0.03;;;;;;;15.28;67.86;102372.31;5049471;28;20049;-78
2023/09/14 05:47:51;;;;;;;0.10;0.10;;;;;;;15.30;67.42;102374.03;5042783;28;20704;-78
2023/09/14 05:50:17;;;;;;;0.10;0.10;;;;;;;15.30;67.66;102367.78;5045390;28;20581;-79
2023/09/14 05:52:43;;;;;;;0.00;0.00;;;;;;;15.30;67.80;102370.47;5040492;28;20072;-79
2023/09/14 05:55:09;;;;;;;0.00;0.00;;;;;;;15.33;68.10;102375.78;5036639;28;20116;-79
2023/09/14 05:57:36;;;;;;;0.10;0.10;;;;;;;15.37;68.15;102382.81;5044101;28;20534;-77
2023/09/14 06:00:09;;;;;;;0.10;0.10;;;;;;;15.41;68.42;102389.88;5037251;28;20257;-77
2023/09/14 06:02:36;;;;;;;0.10;0.10;;;;;;;15.45;68.47;102391.63;5034221;28;20044;-80
2023/09/14 06:05:02;;;;;;;0.10;0.10;;;;;;;15.48;68.60;102386.22;5027520;28;21013;-79
2023/09/14 06:07:28;;;;;;;0.35;0.35;;;;;;;15.53;68.46;102389.69;5034502;28;20029;-79
2023/09/14 06:09:54;;;;;;;0.10;0.10;;;;;;;15.59;68.43;102387.81;5035757;28;20038;-79
2023/09/14 06:12:20;;;;;;;0.15;0.15;;;;;;;15.64;68.75;102391.31;5048265;28;20662;-79
2023/09/14 06:14:46;;;;;;;0.00;0.00;;;;;;;15.70;68.49;102396.53;5036884;28;20021;-76
2023/09/14 06:17:12;;;;;;;0.10;0.10;;;;;;;15.74;68.64;102395.59;5043085;28;20737;-77
2023/09/14 06:19:38;;;;;;;0.10;0.10;;;;;;;15.79;68.77;102391.06;5052672;28;20036;-77
2023/09/14 06:22:05;;;;;;;0.10;0.10;;;;;;;15.82;68.84;102396.34;5050074;28;20113;-78
2023/09/14 06:24:31;;;;;;;0.10;0.10;;;;;;;15.81;69.27;102383.91;5044419;28;20061;-77
2023/09/14 06:26:57;;;;;;;0.43;0.43;;;;;;;15.83;68.98;102391.91;5054870;28;20033;-79
2023/09/14 06:29:23;;;;;;;0.10;0.10;;;;;;;15.82;68.80;102385.66;5036317;28;20033;-80
2023/09/14 06:31:50;;;;;;;0.10;0.10;;;;;;;15.87;69.31;102388.28;5053565;28;20041;-79
2023/09/14 06:34:16;;;;;;;0.52;0.52;;;;;;;15.93;68.75;102389.97;5053953;28;20116;-77
2023/09/14 06:36:42;;;;;;;0.10;0.10;;;;;;;15.98;69.13;102393.44;5050597;28;20060;-77
2023/09/14 06:39:08;;;;;;;1.27;1.00;;;;;;;16.04;69.33;102398.69;5055538;28;20091;-77
2023/09/14 06:41:34;;;;;;;0.00;0.00;;;;;;;16.06;69.39;102394.16;5056302;28;20070;-78
2023/09/14 06:44:01;;;;;;;0.00;0.00;;;;;;;16.12;69.04;102388.69;5037824;28;20034;-78
2023/09/14 06:46:27;;;;;;;0.10;0.10;;;;;;;16.15;68.90;102399.34;5048285;28;20041;-80
2023/09/14 06:48:53;;;;;;;0.10;0.10;;;;;;;16.17;69.26;102393.97;5049127;28;20152;-79
2023/09/14 06:51:19;;;;;;;0.00;0.00;;;;;;;16.15;69.43;102399.34;5040305;28;20033;-79
2023/09/14 06:53:45;;;;;;;0.10;0.10;;;;;;;16.18;69.23;102391.25;5035759;28;20059;-79
2023/09/14 06:56:12;;;;;;;0.43;0.43;;;;;;;16.21;69.39;102392.13;5035297;28;20026;-78
2023/09/14 06:58:39;;;;;;;0.55;0.55;;;;;;;16.25;69.65;102391.16;5040975;28;20020;-80
2023/09/14 07:01:05;;;;;;;0.03;0.03;;;;;;;16.28;69.56;102391.09;5045913;28;20033;-80
2023/09/14 07:03:32;;;;;;;0.10;0.10;;;;;;;16.33;69.15;102390.09;5050887;28;20482;-79
2023/09/14 07:05:59;;;;;;;0.00;0.00;;;;;;;16.40;69.02;102392.66;5054122;28;20027;-81
2023/09/14 07:08:25;;;;;;;0.10;0.10;;;;;;;16.44;69.53;102394.38;5036681;28;20026;-79
2023/09/14 07:10:53;;;;;;;0.10;0.10;;;;;;;16.45;69.47;102396.13;5036153;28;20030;-80
2023/09/14 07:13:19;;;;;;;0.20;0.20;;;;;;;16.52;69.12;102396.88;5036083;28;20103;-81
2023/09/14 07:15:45;;;;;;;0.10;0.10;;;;;;;16.55;69.15;102392.34;5048793;28;20021;-80
2023/09/14 07:18:24;;;;;;;0.10;0.10;;;;;;;16.56;69.46;102388.78;5042944;28;20036;-80
2023/09/14 07:20:52;;;;;;;0.50;0.50;;;;;;;16.60;69.10;102387.78;5044374;28;20032;-81
2023/09/14 07:23:19;;;;;;;0.10;0.10;;;;;;;16.63;69.31;102385.03;5055342;28;20029;-81
2023/09/14 07:25:49;;;;;;;1.77;1.55;;;;;;;16.68;69.49;102384.94;5040201;28;20376;-81
2023/09/14 07:28:17;;;;;;;0.10;0.10;;;;;;;16.74;69.10;102384.81;5055371;28;20029;-80
2023/09/14 07:30:43;;;;;;;0.55;0.55;;;;;;;16.78;69.20;102382.97;5050078;28;20093;-81
2023/09/14 07:33:11;;;;;;;0.10;0.10;;;;;;;16.84;69.38;102392.66;5054630;28;20036;-79
2023/09/14 07:35:37;;;;;;;0.10;0.10;;;;;;;16.90;69.39;102396.06;5045355;28;20033;-81
2023/09/14 07:38:09;;;;;;;0.00;0.00;;;;;;;17.01;69.29;102403.91;5036357;28;20383;-79
2023/09/14 07:40:37;;;;;;;0.20;0.20;;;;;;;17.05;69.44;102402.06;5035472;28;20048;-80
2023/09/14 07:43:03;;;;;;;0.10;0.10;;;;;;;17.08;69.60;102405.50;5038868;28;20615;-80
2023/09/14 07:45:30;;;;;;;0.10;0.10;;;;;;;17.11;69.37;102397.44;5045212;28;21567;-80
2023/09/14 07:47:56;;;;;;;0.20;0.20;;;;;;;17.20;68.96;102400.81;5051891;28;20048;-79
2023/09/14 07:50:22;;;;;;;1.85;0.40;;;;;;;17.28;68.77;102401.50;5055234;28;20575;-83
2023/09/14 07:52:48;;;;;;;0.10;0.10;;;;;;;17.31;69.12;102398.78;5040646;28;20083;-79
2023/09/14 07:55:14;;;;;;;0.10;0.10;;;;;;;17.40;68.84;102406.59;5035613;28;20079;-79
2023/09/14 07:57:41;;;;;;;0.15;0.15;;;;;;;17.51;68.59;102405.44;5036386;28;20075;-82
2023/09/14 08:00:08;;;;;;;0.10;0.10;;;;;;;17.58;68.57;102407.94;5045242;28;20052;-79
2023/09/14 08:02:34;;;;;;;0.17;0.17;;;;;;;17.67;68.69;102412.22;5046910;28;20032;-76
2023/09/14 08:05:00;;;;;;;0.00;0.00;;;;;;;17.74;68.38;102407.56;5054124;28;20501;-78
2023/09/14 08:07:27;;;;;;;0.20;0.20;;;;;;;17.83;68.14;102417.16;5042492;28;20060;-79
2023/09/14 08:09:53;;;;;;;1.00;1.00;;;;;;;17.91;67.99;102410.69;5035949;28;20091;-79
2023/09/14 08:12:19;;;;;;;0.10;0.10;;;;;;;18.03;67.85;102408.63;5045069;28;20521;-81
2023/09/14 08:14:45;;;;;;;0.10;0.10;;;;;;;18.12;67.79;102408.41;5049191;28;20037;-81
2023/09/14 08:17:11;;;;;;;0.20;0.20;;;;;;;18.18;67.26;102407.34;5049262;28;20028;-82
2023/09/14 08:19:37;;;;;;;0.10;0.10;;;;;;;18.22;66.88;102411.72;5052650;28;20033;-82
2023/09/14 08:22:04;;;;;;;0.10;0.10;;;;;;;18.30;66.79;102407.00;5046676;28;20152;-82
2023/09/14 08:24:30;;;;;;;0.05;0.05;;;;;;;18.40;66.98;102402.28;5040284;28;20025;-82
2023/09/14 08:26:56;;;;;;;0.20;0.20;;;;;;;18.49;66.68;102406.50;5035769;28;20037;-83
2023/09/14 08:29:22;;;;;;;0.10;0.10;;;;;;;18.58;66.51;102407.13;5042690;28;20490;-81
2023/09/14 08:31:49;;;;;;;0.17;0.17;;;;;;;18.66;66.24;102398.84;5044345;28;20029;-81
2023/09/14 08:34:15;;;;;;;0.00;0.00;;;;;;;18.74;65.87;102401.28;5053504;28;20024;-82
2023/09/14 08:36:41;;;;;;;0.10;0.10;;;;;;;18.84;65.82;102399.22;5046978;28;20041;-81
2023/09/14 08:39:07;;;;;;;0.10;0.10;;;;;;;18.88;65.27;102403.59;5035404;28;20025;-81
2023/09/14 08:41:37;;;;;;;0.10;0.10;;;;;;;18.96;65.51;102398.88;5045756;28;20028;-83
2023/09/14 08:44:04;;;;;;;4.75;0.80;;;;;;;19.04;65.33;102406.69;5039533;28;20375;-83
2023/09/14 08:46:32;;;;;;;0.17;0.17;;;;;;;19.14;65.34;102405.50;5037012;28;20030;-82
2023/09/14 08:49:00;;;;;;;0.50;0.50;;;;;;;19.24;65.29;102406.09;5043772;28;20040;-81
2023/09/14 08:51:28;;;;;;;0.08;0.08;;;;;;;19.35;65.37;102408.44;5043522;28;20045;-83
2023/09/14 08:53:56;;;;;;;0.10;0.10;;;;;;;19.44;65.12;102404.56;5035528;28;20033;-83
2023/09/14 08:56:22;;;;;;;0.20;0.20;;;;;;;19.53;65.15;102407.81;5041202;28;20022;-80
2023/09/14 08:58:50;;;;;;;0.10;0.10;;;;;;;19.62;64.70;102400.41;5057644;28;20033;-85
2023/09/14 09:01:17;;;;;;;0.40;0.40;;;;;;;19.76;64.51;102402.63;5047793;28;20033;-83
2023/09/14 09:03:44;;;;;;;0.75;0.35;;;;;;;19.81;64.03;102400.66;5043836;28;20032;-82
2023/09/14 09:06:11;;;;;;;6.28;1.10;;;;;;;19.90;63.36;102400.38;5040513;28;20020;-82
2023/09/14 09:08:38;;;;;;;0.10;0.10;;;;;;;20.03;63.18;102406.22;5052740;28;20170;-81
2023/09/14 09:11:04;;;;;;;0.10;0.10;;;;;;;20.14;63.34;102400.47;5038083;28;20022;-82
2023/09/14 09:13:34;;;;;;;0.17;0.17;;;;;;;20.24;62.74;102407.25;5033188;28;20022;-82
2023/09/14 09:16:00;;;;;;;0.10;0.10;;;;;;;20.32;62.43;102405.16;5032139;28;20048;-80
2023/09/14 09:18:27;;;;;;;0.10;0.10;;;;;;;20.45;62.99;102404.69;5033825;28;20060;-82
2023/09/14 09:20:53;;;;;;;0.00;0.00;;;;;;;20.51;61.88;102401.78;5041845;28;20125;-83
2023/09/14 09:23:21;;;;;;;0.20;0.20;;;;;;;20.66;62.12;102394.94;5034738;28;20032;-82
2023/09/14 09:25:49;;;;;;;0.20;0.20;;;;;;;20.73;61.32;102395.63;5045144;28;20032;-82
2023/09/14 09:28:15;;;;;;;0.10;0.10;;;;;;;20.76;59.62;102392.81;5047965;28;20041;-82
2023/09/14 09:30:42;;;;;;;0.00;0.00;;;;;;;20.87;60.10;102398.66;5042106;28;20044;-84
2023/09/14 09:33:08;;;;;;;0.10;0.10;;;;;;;20.93;59.59;102393.03;5039967;28;20029;-83
2023/09/14 09:35:34;;;;;;;0.30;0.30;;;;;;;21.01;60.74;102396.31;5041400;28;20029;-83
2023/09/14 09:38:16;;;;;;;0.10;0.10;;;;;;;21.08;60.29;102396.94;5039376;28;20414;-84
2023/09/14 09:40:46;;;;;;;0.10;0.10;;;;;;;21.21;59.75;102391.97;5040352;28;20052;-84
2023/09/14 09:43:16;;;;;;;0.10;0.10;;;;;;;21.25;58.61;102390.88;5038502;28;20037;-84
2023/09/14 09:45:42;;;;;;;0.20;0.20;;;;;;;21.34;58.33;102393.19;5037286;28;20479;-84
2023/09/14 09:48:09;;;;;;;0.05;0.05;;;;;;;21.45;58.81;102384.66;5041973;28;20087;-84
2023/09/14 09:50:35;;;;;;;0.20;0.20;;;;;;;21.53;57.88;102396.97;5054627;28;20029;-83
2023/09/14 09:53:02;;;;;;;0.10;0.10;;;;;;;21.69;58.54;102386.44;5046692;28;20060;-83
2023/09/14 09:55:30;;;;;;;0.10;0.10;;;;;;;21.69;57.23;102381.91;5041903;28;20030;-83
2023/09/14 09:57:58;;;;;;;0.82;0.80;;;;;;;21.75;57.44;102378.97;5044319;28;20057;-83
2023/09/14 10:00:31;;;;;;;0.30;0.30;;;;;;;21.88;57.44;102386.53;5040550;28;20056;-83
2023/09/14 10:02:58;;;;;;;0.15;0.15;;;;;;;21.92;57.12;102378.25;5046398;28;20029;-80
2023/09/14 10:05:28;;;;;;;0.10;0.10;;;;;;;22.13;58.14;102381.81;5051498;28;20021;-81
2023/09/14 10:07:55;;;;;;;0.38;0.38;;;;;;;22.25;55.63;102380.38;5041729;28;20507;-82
2023/09/14 10:10:25;;;;;;;0.15;0.15;;;;;;;22.44;54.74;102374.16;5040127;28;20063;-82
2023/09/14 10:12:54;;;;;;;0.10;0.10;;;;;;;22.62;54.13;102378.72;5041886;28;20025;-82
2023/09/14 10:15:20;;;;;;;1.02;0.80;;;;;;;22.78;53.77;102362.66;5040234;28;20037;-82
2023/09/14 10:17:52;;;;;;;0.20;0.20;;;;;;;23.04;55.08;102378.56;5041278;28;20518;-80
2023/09/14 10:20:19;;;;;;;0.00;0.00;;;;;;;23.18;53.64;102368.00;5046542;28;20036;-80
2023/09/14 10:22:48;;;;;;;0.08;0.08;;;;;;;23.38;53.85;102367.00;5041124;28;20014;-82
2023/09/14 10:25:16;;;;;;;0.25;0.25;;;;;;;23.48;52.68;102364.72;5044419;28;20033;-82
2023/09/14 10:27:43;;;;;;;0.10;0.10;;;;;;;23.58;53.71;102367.84;5040344;28;20048;-82
2023/09/14 10:30:18;;;;;;;24.10;1.95;;;;;;;23.46;49.34;102369.31;5040662;28;20030;-81
2023/09/14 10:32:48;;;;;;;0.17;0.17;;;;;;;23.55;49.06;102360.75;5042240;28;20021;-82
2023/09/14 10:35:14;;;;;;;0.10;0.10;;;;;;;23.63;50.43;102364.88;5053592;28;20025;-82
2023/09/14 10:37:43;;;;;;;0.00;0.00;;;;;;;23.58;49.34;102352.47;5048329;28;20037;-82
2023/09/14 10:40:12;;;;;;;0.10;0.10;;;;;;;23.57;49.13;102356.13;5044892;28;20029;-81
2023/09/14 10:42:40;;;;;;;0.10;0.10;;;;;;;23.57;51.08;102353.41;5051294;28;20025;-82
2023/09/14 10:45:08;;;;;;;0.10;0.10;;;;;;;23.55;49.06;102344.53;5049143;28;20024;-81
2023/09/14 10:47:37;;;;;;;7.47;0.55;;;;;;;23.59;50.24;102338.00;5052360;28;20037;-82
2023/09/14 10:50:05;;;;;;;0.10;0.10;;;;;;;23.70;50.03;102344.66;5041968;28;20106;-81
2023/09/14 10:52:33;;;;;;;0.00;0.00;;;;;;;23.80;49.81;102343.25;5040898;28;20028;-81
2023/09/14 10:55:00;;;;;;;1.00;0.38;;;;;;;23.79;48.52;102338.78;5040425;28;20028;-81
2023/09/14 10:57:29;;;;;;;0.52;0.38;;;;;;;23.88;48.27;102343.72;5039514;28;20075;-81
2023/09/14 10:59:58;;;;;;;0.05;0.05;;;;;;;23.94;46.42;102336.25;5040770;28;20029;-80
2023/09/14 11:05:43;;;;;;;0.10;0.10;;;;;;;24.03;45.46;102341.19;5101399;27;1168195;-81
2023/09/14 11:08:10;;;;;;;0.20;0.20;;;;;;;24.10;45.95;102337.22;5128393;27;20069;-82
2023/09/14 11:10:37;;;;;;;0.00;0.00;;;;;;;24.08;45.94;102338.25;5130120;27;20115;-82
2023/09/14 11:13:23;;;;;;;0.00;0.00;;;;;;;24.20;47.40;102334.84;5126450;27;20027;-81
2023/09/14 11:16:14;;;;;;;0.10;0.10;;;;;;;24.26;45.75;102330.94;5128618;27;20027;-81
2023/09/14 11:21:43;;;;;;;0.00;0.00;;;;;;;24.42;47.14;102323.72;5112784;27;20397;-81
2023/09/14 11:24:10;;;;;;;0.32;0.32;;;;;;;24.42;46.08;102326.44;5103024;28;20036;-81
2023/09/14 11:26:44;;;;;;;0.00;0.00;;;;;;;24.54;47.59;102322.19;5103350;28;20549;-82
2023/09/14 11:29:11;;;;;;;0.10;0.10;;;;;;;24.54;44.72;102320.31;5105823;28;20058;-82
2023/09/14 11:31:38;;;;;;;0.10;0.10;;;;;;;24.70;46.29;102314.09;5099516;28;20082;-82
2023/09/14 11:34:07;;;;;;;0.10;0.10;;;;;;;24.81;44.80;102310.75;5100988;28;20031;-81
2023/09/14 11:36:34;;;;;;;0.15;0.15;;;;;;;24.92;45.89;102315.56;5109168;28;20028;-82